Time;durP1;ratioP1;P1;durP2;ratioP2;P2;SDS_P1;SDS_P2;PMS_P1;PMS_P2;Temp;Humidity;BMP_temperature;BMP_pressure;BME280_temperature;BME280_humidity;BME280_pressure;Samples;Min_cycle;Max_cycle;Signal;HPM_P1;HPM_P2
2023/03/11 00:00:58;;;;;;;;;;;13.50;99.90;;;;;;5034553;28;19910;-73
2023/03/11 00:03:24;;;;;;;;;;;13.50;99.90;;;;;;5033857;28;20426;-73
2023/03/11 00:05:51;;;;;;;;;;;13.40;99.90;;;;;;5034220;28;19958;-72
2023/03/11 00:08:18;;;;;;;;;;;13.40;99.90;;;;;;5034102;28;19928;-73
2023/03/11 00:10:45;;;;;;;;;;;13.50;99.90;;;;;;5033444;28;19909;-73
2023/03/11 00:13:11;;;;;;;;;;;13.50;99.90;;;;;;5033202;28;19916;-72
2023/03/11 00:15:37;;;;;;;;;;;13.40;99.90;;;;;;5033872;28;19935;-73
2023/03/11 00:18:03;;;;;;;;;;;13.40;99.90;;;;;;5033572;28;20422;-72
2023/03/11 00:20:31;;;;;;;;;;;13.40;99.90;;;;;;5033527;28;19928;-73
2023/03/11 00:22:56;;;;;;;;;;;13.40;99.90;;;;;;5033029;28;19924;-72
2023/03/11 00:25:23;;;;;;;;;;;13.30;99.90;;;;;;5032406;28;19913;-73
2023/03/11 00:27:49;;;;;;;;;;;13.30;99.90;;;;;;5034078;28;19916;-72
2023/03/11 00:30:16;;;;;;;;;;;13.30;99.90;;;;;;5033673;28;19913;-72
2023/03/11 00:32:42;;;;;;;;;;;13.30;99.90;;;;;;5033123;28;19909;-73
2023/03/11 00:35:11;;;;;;;;;;;13.20;99.90;;;;;;5033298;28;19984;-73
2023/03/11 00:37:36;;;;;;;;;;;13.20;99.90;;;;;;5033040;28;19909;-73
2023/03/11 00:40:07;;;;;;;;;;;13.30;99.90;;;;;;5033368;28;19909;-75
2023/03/11 00:42:33;;;;;;;;;;;13.30;99.90;;;;;;5033712;28;19936;-73
2023/03/11 00:44:59;;;;;;;;;;;13.20;99.90;;;;;;5033688;28;19909;-73
2023/03/11 00:47:24;;;;;;;;;;;13.20;99.90;;;;;;5033367;28;19971;-73
2023/03/11 00:49:50;;;;;;;;;;;13.30;99.90;;;;;;5033527;28;20335;-72
2023/03/11 00:52:16;;;;;;;;;;;13.20;99.90;;;;;;5033458;28;19909;-77
2023/03/11 00:54:41;;;;;;;;;;;13.20;99.90;;;;;;5033366;28;19909;-73
2023/03/11 00:57:07;;;;;;;;;;;13.30;99.90;;;;;;5031692;28;19909;-73
2023/03/11 00:59:34;;;;;;;;;;;13.30;99.90;;;;;;5031834;28;19909;-73
2023/03/11 01:01:59;;;;;;;;;;;13.40;99.90;;;;;;5033017;28;19910;-73
2023/03/11 01:04:25;;;;;;;;;;;13.30;99.90;;;;;;5032898;28;19916;-72
2023/03/11 01:06:51;;;;;;;;;;;13.30;99.90;;;;;;5037299;28;19913;-72
2023/03/11 01:09:16;;;;;;;;;;;13.30;99.90;;;;;;5036738;28;19932;-73
2023/03/11 01:11:42;;;;;;;;;;;13.30;99.90;;;;;;5036671;28;19909;-72
2023/03/11 01:14:08;;;;;;;;;;;13.30;99.90;;;;;;5037212;28;19916;-73
2023/03/11 01:16:34;;;;;;;;;;;13.20;99.90;;;;;;5037413;28;19913;-72
2023/03/11 01:18:59;;;;;;;;;;;13.30;99.90;;;;;;5036736;28;19973;-73
2023/03/11 01:21:25;;;;;;;;;;;13.20;99.90;;;;;;5036845;28;20004;-73
2023/03/11 01:23:51;;;;;;;;;;;13.20;99.90;;;;;;5036739;28;19917;-72
2023/03/11 01:26:16;;;;;;;;;;;13.20;99.90;;;;;;5036119;28;19920;-73
2023/03/11 01:28:42;;;;;;;;;;;13.20;99.90;;;;;;5035980;28;19963;-72
2023/03/11 01:31:08;;;;;;;;;;;13.10;99.90;;;;;;5036269;28;19909;-72
2023/03/11 01:33:34;;;;;;;;;;;13.20;99.90;;;;;;5035622;28;19913;-72
2023/03/11 01:36:00;;;;;;;;;;;13.10;99.90;;;;;;5036204;28;19913;-72
2023/03/11 01:38:25;;;;;;;;;;;13.20;99.90;;;;;;5037100;28;19936;-72
2023/03/11 01:40:51;;;;;;;;;;;13.00;99.90;;;;;;5037088;28;20175;-73
2023/03/11 01:43:36;;;;;;;;;;;13.10;99.90;;;;;;5036804;28;20369;-73
2023/03/11 01:46:07;;;;;;;;;;;13.10;99.90;;;;;;5036963;28;20371;-73
2023/03/11 01:48:33;;;;;;;;;;;13.20;99.90;;;;;;5036508;28;19909;-73
2023/03/11 01:50:59;;;;;;;;;;;13.20;99.90;;;;;;5036879;28;19917;-73
2023/03/11 01:53:25;;;;;;;;;;;13.20;99.90;;;;;;5036638;28;19937;-73
2023/03/11 01:55:51;;;;;;;;;;;13.10;99.90;;;;;;5036586;28;19932;-73
2023/03/11 01:58:19;;;;;;;;;;;13.10;99.90;;;;;;5036167;28;19909;-73
2023/03/11 02:00:45;;;;;;;;;;;13.10;99.90;;;;;;5036573;28;19967;-73
2023/03/11 02:03:26;;;;;;;;;;;12.90;99.90;;;;;;5036088;28;19913;-72
2023/03/11 02:05:52;;;;;;;;;;;13.00;99.90;;;;;;5036129;28;19917;-73
2023/03/11 02:08:18;;;;;;;;;;;13.00;99.90;;;;;;5035838;28;19909;-77
2023/03/11 02:10:45;;;;;;;;;;;13.00;99.90;;;;;;5036202;28;19963;-73
2023/03/11 02:13:11;;;;;;;;;;;13.10;99.90;;;;;;5035926;28;19917;-71
2023/03/11 02:15:37;;;;;;;;;;;13.00;99.90;;;;;;5036259;28;20008;-73
2023/03/11 02:18:04;;;;;;;;;;;12.90;99.90;;;;;;5035807;28;19966;-73
2023/03/11 02:20:48;;;;;;;;;;;12.80;99.90;;;;;;5034166;28;19909;-72
2023/03/11 02:23:15;;;;;;;;;;;12.90;99.90;;;;;;5035869;28;19917;-76
2023/03/11 02:25:45;;;;;;;;;;;12.80;99.90;;;;;;5036150;28;19921;-73
2023/03/11 02:28:12;;;;;;;;;;;12.80;99.90;;;;;;5035621;28;19909;-73
2023/03/11 02:30:39;;;;;;;;;;;12.80;99.90;;;;;;5035590;28;19920;-72
2023/03/11 02:33:05;;;;;;;;;;;12.70;99.90;;;;;;5035660;28;20276;-72
2023/03/11 02:35:31;;;;;;;;;;;12.70;99.90;;;;;;5035326;28;19920;-73
2023/03/11 02:37:59;;;;;;;;;;;12.70;99.90;;;;;;5035890;28;19955;-72
2023/03/11 02:40:29;;;;;;;;;;;12.70;99.90;;;;;;5036005;28;19920;-72
2023/03/11 02:42:56;;;;;;;;;;;12.70;99.90;;;;;;5035788;28;19913;-72
2023/03/11 02:45:23;;;;;;;;;;;12.70;99.90;;;;;;5034213;28;20370;-70
2023/03/11 02:47:50;;;;;;;;;;;12.80;99.90;;;;;;5035301;28;19951;-73
2023/03/11 02:50:17;;;;;;;;;;;12.80;99.90;;;;;;5034701;28;20387;-73
2023/03/11 02:52:42;;;;;;;;;;;12.70;99.90;;;;;;5035120;28;19909;-72
2023/03/11 02:55:10;;;;;;;;;;;12.70;99.90;;;;;;5035020;28;20351;-72
2023/03/11 02:57:37;;;;;;;;;;;12.70;99.90;;;;;;5035346;28;19909;-72
2023/03/11 03:00:09;;;;;;;;;;;12.50;99.90;;;;;;5034856;28;19913;-71
2023/03/11 03:02:35;;;;;;;;;;;12.50;99.90;;;;;;5035477;28;19914;-72
2023/03/11 03:05:02;;;;;;;;;;;12.50;99.90;;;;;;5034556;28;20269;-72
2023/03/11 03:07:27;;;;;;;;;;;12.40;99.90;;;;;;5034862;28;19909;-73
2023/03/11 03:09:53;;;;;;;;;;;12.40;99.90;;;;;;5034840;28;20019;-73
2023/03/11 03:12:19;;;;;;;;;;;12.50;99.90;;;;;;5033329;28;19955;-73
2023/03/11 03:14:44;;;;;;;;;;;12.40;99.90;;;;;;5034853;28;19947;-73
2023/03/11 03:17:10;;;;;;;;;;;12.50;99.90;;;;;;5034922;28;19913;-76
2023/03/11 03:19:36;;;;;;;;;;;12.50;99.90;;;;;;5034549;28;20007;-76
2023/03/11 03:22:01;;;;;;;;;;;12.40;99.90;;;;;;5034631;28;19917;-72
2023/03/11 03:24:27;;;;;;;;;;;12.40;99.90;;;;;;5034417;28;19991;-72
2023/03/11 03:26:53;;;;;;;;;;;12.40;99.90;;;;;;5034944;28;20011;-73
2023/03/11 03:29:19;;;;;;;;;;;12.40;99.90;;;;;;5034079;28;19913;-72
2023/03/11 03:31:44;;;;;;;;;;;12.40;99.90;;;;;;5034639;28;19914;-72
2023/03/11 03:34:10;;;;;;;;;;;12.30;99.90;;;;;;5034049;28;19909;-73
2023/03/11 03:36:36;;;;;;;;;;;12.30;99.90;;;;;;5033390;28;19913;-71
2023/03/11 03:39:02;;;;;;;;;;;12.30;99.90;;;;;;5034139;28;19924;-72
2023/03/11 03:41:27;;;;;;;;;;;12.30;99.90;;;;;;5034717;28;19920;-72
2023/03/11 03:43:53;;;;;;;;;;;12.20;99.90;;;;;;5034476;28;19909;-71
2023/03/11 03:46:19;;;;;;;;;;;12.20;99.90;;;;;;5034530;28;19956;-73
2023/03/11 03:48:45;;;;;;;;;;;12.20;99.90;;;;;;5034400;28;19980;-73
2023/03/11 03:51:11;;;;;;;;;;;12.20;99.90;;;;;;5034243;28;19928;-72
2023/03/11 03:53:37;;;;;;;;;;;12.20;99.90;;;;;;5034281;28;20028;-72
2023/03/11 03:56:04;;;;;;;;;;;12.20;99.90;;;;;;5034423;28;19916;-72
2023/03/11 03:58:30;;;;;;;;;;;12.30;99.90;;;;;;5034078;28;20321;-72
2023/03/11 04:00:56;;;;;;;;;;;12.30;99.90;;;;;;5034176;28;19917;-72
2023/03/11 04:03:21;;;;;;;;;;;12.30;99.90;;;;;;5034411;28;19909;-72
2023/03/11 04:05:47;;;;;;;;;;;12.20;99.90;;;;;;5033916;28;19917;-72
2023/03/11 04:08:13;;;;;;;;;;;12.20;99.90;;;;;;5033518;28;19917;-73
2023/03/11 04:10:38;;;;;;;;;;;12.20;99.90;;;;;;5034242;28;20016;-72
2023/03/11 04:13:04;;;;;;;;;;;12.20;99.90;;;;;;5033853;28;19917;-72
2023/03/11 04:15:30;;;;;;;;;;;12.20;99.90;;;;;;5033945;28;19909;-73
2023/03/11 04:17:55;;;;;;;;;;;12.20;99.90;;;;;;5033764;28;19910;-71
2023/03/11 04:20:21;;;;;;;;;;;12.30;99.90;;;;;;5033668;28;19959;-75
2023/03/11 04:22:47;;;;;;;;;;;12.30;99.90;;;;;;5033753;28;19921;-72
2023/03/11 04:25:12;;;;;;;;;;;12.30;99.90;;;;;;5033525;28;19913;-73
2023/03/11 04:27:41;;;;;;;;;;;12.20;99.90;;;;;;5033534;28;19909;-72
2023/03/11 04:30:07;;;;;;;;;;;12.10;99.90;;;;;;5033423;28;19920;-72
2023/03/11 04:32:33;;;;;;;;;;;12.10;99.90;;;;;;5032865;28;19909;-73
2023/03/11 04:34:59;;;;;;;;;;;12.20;99.90;;;;;;5033479;28;19921;-71
2023/03/11 04:37:28;;;;;;;;;;;12.10;99.90;;;;;;5033081;28;19921;-73
2023/03/11 04:39:54;;;;;;;;;;;12.10;99.90;;;;;;5029739;28;20285;-72
2023/03/11 04:42:19;;;;;;;;;;;12.10;99.90;;;;;;5030936;28;20004;-72
2023/03/11 04:44:45;;;;;;;;;;;12.00;99.90;;;;;;5031041;28;19916;-72
2023/03/11 04:47:11;;;;;;;;;;;12.00;99.90;;;;;;5030917;28;19913;-72
2023/03/11 04:49:36;;;;;;;;;;;12.00;99.90;;;;;;5031087;28;20008;-73
2023/03/11 04:52:02;;;;;;;;;;;12.00;99.90;;;;;;5031038;28;19963;-72
2023/03/11 04:54:28;;;;;;;;;;;11.90;99.90;;;;;;5030933;28;20287;-73
2023/03/11 04:56:54;;;;;;;;;;;11.90;99.90;;;;;;5030980;28;19909;-73
2023/03/11 04:59:19;;;;;;;;;;;11.80;99.90;;;;;;5030569;28;19916;-72
2023/03/11 05:01:45;;;;;;;;;;;11.80;99.90;;;;;;5031077;28;19913;-73
2023/03/11 05:04:11;;;;;;;;;;;11.80;99.90;;;;;;5030941;28;19910;-73
2023/03/11 05:06:37;;;;;;;;;;;11.80;99.90;;;;;;5031272;28;20275;-73
2023/03/11 05:09:03;;;;;;;;;;;11.80;99.90;;;;;;5030664;28;19909;-72
2023/03/11 05:11:29;;;;;;;;;;;11.90;99.90;;;;;;5030706;28;20004;-72
2023/03/11 05:13:55;;;;;;;;;;;11.80;99.90;;;;;;5030335;28;19987;-73
2023/03/11 05:16:20;;;;;;;;;;;11.80;99.90;;;;;;5031112;28;19909;-73
2023/03/11 05:18:46;;;;;;;;;;;11.90;99.90;;;;;;5030387;28;20032;-72
2023/03/11 05:21:12;;;;;;;;;;;11.80;99.90;;;;;;5030671;28;19913;-72
2023/03/11 05:23:37;;;;;;;;;;;11.80;99.90;;;;;;5030569;28;20168;-72
2023/03/11 05:26:03;;;;;;;;;;;11.90;99.90;;;;;;5030545;28;19913;-72
2023/03/11 05:28:29;;;;;;;;;;;11.80;99.90;;;;;;5030300;28;20004;-73
2023/03/11 05:30:54;;;;;;;;;;;11.80;99.90;;;;;;5030714;28;19989;-72
2023/03/11 05:33:20;;;;;;;;;;;11.70;99.90;;;;;;5030712;28;19955;-72
2023/03/11 05:35:46;;;;;;;;;;;11.70;99.90;;;;;;5031388;28;20000;-72
2023/03/11 05:38:11;;;;;;;;;;;11.60;99.90;;;;;;5031272;28;19945;-73
2023/03/11 05:40:37;;;;;;;;;;;11.70;99.90;;;;;;5030979;28;19910;-73
2023/03/11 05:43:03;;;;;;;;;;;11.70;99.90;;;;;;5030719;28;19913;-72
2023/03/11 05:45:28;;;;;;;;;;;11.70;99.90;;;;;;5030797;28;19960;-73
2023/03/11 05:47:54;;;;;;;;;;;11.80;99.90;;;;;;5030553;28;19949;-75
2023/03/11 05:50:20;;;;;;;;;;;11.80;99.90;;;;;;5030459;28;19916;-72
2023/03/11 05:52:46;;;;;;;;;;;11.80;99.90;;;;;;5033966;28;19909;-73
2023/03/11 05:55:11;;;;;;;;;;;11.90;99.90;;;;;;5034065;28;19909;-73
2023/03/11 05:57:38;;;;;;;;;;;11.80;99.90;;;;;;5034026;28;20507;-73
2023/03/11 06:00:06;;;;;;;;;;;11.90;99.90;;;;;;5033941;28;19909;-72
2023/03/11 06:02:31;;;;;;;;;;;11.90;99.90;;;;;;5034068;28;19916;-72
2023/03/11 06:04:57;;;;;;;;;;;11.90;99.90;;;;;;5033877;28;19909;-72
2023/03/11 06:07:22;;;;;;;;;;;11.90;99.90;;;;;;5033899;28;20051;-73
2023/03/11 06:09:49;;;;;;;;;;;12.00;99.90;;;;;;5033782;28;19909;-72
2023/03/11 06:12:14;;;;;;;;;;;12.00;99.90;;;;;;5033829;28;19915;-72
2023/03/11 06:14:40;;;;;;;;;;;12.00;99.90;;;;;;5033872;28;19910;-72
2023/03/11 06:17:06;;;;;;;;;;;12.00;99.90;;;;;;5033829;28;19950;-72
2023/03/11 06:19:31;;;;;;;;;;;11.90;99.90;;;;;;5033595;28;19913;-72
2023/03/11 06:21:57;;;;;;;;;;;12.00;99.90;;;;;;5033552;28;19970;-72
2023/03/11 06:24:23;;;;;;;;;;;12.00;99.90;;;;;;5033761;28;20402;-72
2023/03/11 06:26:51;;;;;;;;;;;12.00;99.90;;;;;;5033679;28;19920;-72
2023/03/11 06:29:17;;;;;;;;;;;12.10;99.90;;;;;;5033394;28;19996;-73
2023/03/11 06:31:43;;;;;;;;;;;12.10;99.90;;;;;;5033470;28;20000;-72
2023/03/11 06:34:10;;;;;;;;;;;12.00;99.90;;;;;;5033547;28;19915;-72
2023/03/11 06:36:35;;;;;;;;;;;12.10;99.90;;;;;;5033400;28;20359;-72
2023/03/11 06:39:01;;;;;;;;;;;12.20;99.90;;;;;;5033323;28;19995;-71
2023/03/11 06:41:27;;;;;;;;;;;12.20;99.90;;;;;;5033385;28;19935;-72
2023/03/11 06:43:52;;;;;;;;;;;12.20;99.90;;;;;;5033261;28;20351;-72
2023/03/11 06:46:20;;;;;;;;;;;12.30;99.90;;;;;;5033256;28;19951;-73
2023/03/11 06:48:45;;;;;;;;;;;12.30;99.90;;;;;;5033145;28;19920;-72
2023/03/11 06:51:11;;;;;;;;;;;12.30;99.90;;;;;;5033360;28;20004;-72
2023/03/11 06:53:37;;;;;;;;;;;12.40;99.90;;;;;;5033031;28;19945;-72
2023/03/11 06:56:08;;;;;;;;;;;12.40;99.90;;;;;;5033332;28;19980;-72
2023/03/11 06:58:34;;;;;;;;;;;12.40;99.90;;;;;;5033074;28;20379;-72
2023/03/11 07:01:01;;;;;;;;;;;12.50;99.90;;;;;;5033183;28;19909;-72
2023/03/11 07:03:27;;;;;;;;;;;12.60;99.90;;;;;;5032602;28;19916;-72
2023/03/11 07:05:52;;;;;;;;;;;12.60;99.90;;;;;;5033208;28;19913;-72
2023/03/11 07:08:18;;;;;;;;;;;12.60;99.90;;;;;;5031511;28;20010;-73
2023/03/11 07:10:44;;;;;;;;;;;12.70;99.90;;;;;;5031833;28;19910;-73
2023/03/11 07:13:10;;;;;;;;;;;12.70;99.90;;;;;;5033097;28;19921;-72
2023/03/11 07:15:35;;;;;;;;;;;12.70;99.90;;;;;;5033005;28;19909;-72
2023/03/11 07:18:01;;;;;;;;;;;12.70;99.90;;;;;;5032891;28;20390;-72
2023/03/11 07:20:27;;;;;;;;;;;12.80;99.90;;;;;;5033058;28;19959;-72
2023/03/11 07:22:53;;;;;;;;;;;12.80;99.90;;;;;;5033002;28;19923;-72
2023/03/11 07:25:18;;;;;;;;;;;13.00;99.90;;;;;;5032940;28;19913;-72
2023/03/11 07:27:44;;;;;;;;;;;13.00;99.90;;;;;;5031780;28;19917;-72
2023/03/11 07:30:10;;;;;;;;;;;13.00;99.90;;;;;;5034273;28;19909;-72
2023/03/11 07:32:35;;;;;;;;;;;13.00;99.90;;;;;;5033020;28;19910;-72
2023/03/11 07:35:01;;;;;;;;;;;13.10;99.90;;;;;;5032455;28;19935;-73
2023/03/11 07:37:27;;;;;;;;;;;13.10;99.90;;;;;;5032576;28;19910;-73
2023/03/11 07:39:52;;;;;;;;;;;13.10;99.90;;;;;;5032426;28;19980;-72
2023/03/11 07:42:18;;;;;;;;;;;13.10;99.90;;;;;;5034169;28;19909;-72
2023/03/11 07:44:44;;;;;;;;;;;13.00;99.90;;;;;;5033966;28;19916;-72
2023/03/11 07:47:09;;;;;;;;;;;13.10;99.90;;;;;;5034372;28;19940;-76
2023/03/11 07:49:35;;;;;;;;;;;13.20;99.90;;;;;;5036518;28;19921;-73
2023/03/11 07:52:01;;;;;;;;;;;13.20;99.90;;;;;;5053718;28;19919;-73
2023/03/11 07:54:26;;;;;;;;;;;13.30;99.90;;;;;;5057587;28;20053;-67
2023/03/11 07:56:52;;;;;;;;;;;13.40;99.90;;;;;;5061735;28;19912;-69
2023/03/11 07:59:18;;;;;;;;;;;13.30;99.90;;;;;;5067217;28;19943;-69
2023/03/11 08:01:46;;;;;;;;;;;13.40;99.90;;;;;;5067211;28;20393;-69
2023/03/11 08:04:12;;;;;;;;;;;13.50;99.90;;;;;;5068183;28;19952;-69
2023/03/11 08:06:40;;;;;;;;;;;13.60;99.90;;;;;;5060545;28;19928;-69
2023/03/11 08:09:07;;;;;;;;;;;13.60;99.90;;;;;;5068013;28;20007;-69
2023/03/11 08:11:33;;;;;;;;;;;13.60;99.90;;;;;;5066359;28;19954;-69
2023/03/11 08:13:59;;;;;;;;;;;13.80;99.90;;;;;;5068577;28;20002;-68
2023/03/11 08:16:25;;;;;;;;;;;13.90;99.90;;;;;;5059643;28;20370;-68
2023/03/11 08:18:51;;;;;;;;;;;14.00;99.90;;;;;;5067431;28;19908;-70
2023/03/11 08:21:18;;;;;;;;;;;14.00;99.90;;;;;;5050661;28;19920;-70
2023/03/11 08:23:46;;;;;;;;;;;14.10;99.90;;;;;;5062046;28;19917;-69
2023/03/11 08:26:14;;;;;;;;;;;14.20;99.90;;;;;;5061302;28;19992;-70
2023/03/11 08:28:40;;;;;;;;;;;14.40;99.90;;;;;;5058638;28;19921;-70
2023/03/11 08:31:16;;;;;;;;;;;14.50;99.90;;;;;;5060376;28;20313;-69
2023/03/11 08:33:42;;;;;;;;;;;14.60;99.90;;;;;;5064639;28;20293;-68
2023/03/11 08:36:08;;;;;;;;;;;14.60;99.90;;;;;;5063460;28;19963;-69
2023/03/11 08:38:34;;;;;;;;;;;14.60;99.90;;;;;;5058650;28;19913;-69
2023/03/11 08:41:00;;;;;;;;;;;14.70;99.90;;;;;;5055237;28;20426;-69
2023/03/11 08:43:26;;;;;;;;;;;14.70;99.90;;;;;;5063740;28;19955;-69
2023/03/11 08:45:52;;;;;;;;;;;14.80;99.90;;;;;;5068052;28;20158;-69
2023/03/11 08:48:17;;;;;;;;;;;14.90;99.90;;;;;;5067353;28;20472;-69
2023/03/11 08:50:43;;;;;;;;;;;15.00;99.90;;;;;;5064899;28;19909;-69
2023/03/11 08:53:09;;;;;;;;;;;14.90;99.90;;;;;;5058802;28;21939;-67
2023/03/11 08:55:35;;;;;;;;;;;15.20;99.90;;;;;;5050912;28;19917;-69
2023/03/11 08:58:01;;;;;;;;;;;15.20;99.90;;;;;;5064967;28;19934;-70
2023/03/11 09:00:26;;;;;;;;;;;15.10;99.90;;;;;;5064407;28;19909;-69
2023/03/11 09:02:52;;;;;;;;;;;15.10;99.90;;;;;;5058160;28;19913;-69
2023/03/11 09:05:18;;;;;;;;;;;15.30;99.90;;;;;;5066785;28;19908;-70
2023/03/11 09:07:43;;;;;;;;;;;15.20;99.90;;;;;;5066593;28;19909;-69
2023/03/11 09:10:12;;;;;;;;;;;15.10;99.90;;;;;;5063146;28;19908;-69
2023/03/11 09:12:37;;;;;;;;;;;15.20;99.90;;;;;;5057602;28;19934;-70
2023/03/11 09:15:04;;;;;;;;;;;15.10;99.90;;;;;;5059008;28;19919;-70
2023/03/11 09:17:30;;;;;;;;;;;15.00;99.90;;;;;;5064688;28;20429;-70
2023/03/11 09:19:55;;;;;;;;;;;15.00;99.90;;;;;;5067231;28;19909;-71
2023/03/11 09:22:21;;;;;;;;;;;15.00;99.90;;;;;;5064337;28;19963;-70
2023/03/11 09:24:47;;;;;;;;;;;15.00;99.90;;;;;;5067122;28;19912;-70
2023/03/11 09:27:14;;;;;;;;;;;15.00;99.90;;;;;;5069677;28;19916;-70
2023/03/11 09:29:40;;;;;;;;;;;15.00;99.90;;;;;;5070145;28;20290;-70
2023/03/11 09:32:05;;;;;;;;;;;15.10;99.90;;;;;;5063314;28;19913;-71
2023/03/11 09:34:31;;;;;;;;;;;15.40;99.90;;;;;;5057923;28;19948;-70
2023/03/11 09:36:56;;;;;;;;;;;15.40;99.90;;;;;;5071754;28;19923;-71
2023/03/11 09:39:22;;;;;;;;;;;15.40;99.90;;;;;;5058167;28;19908;-71
2023/03/11 09:41:51;;;;;;;;;;;15.50;99.90;;;;;;5051173;28;19917;-71
2023/03/11 09:44:23;;;;;;;;;;;15.70;99.90;;;;;;5054782;28;19920;-71
2023/03/11 09:47:09;;;;;;;;;;;15.70;99.90;;;;;;5055572;28;19932;-71
2023/03/11 09:49:43;;;;;;;;;;;15.90;99.90;;;;;;5055527;28;19909;-72
2023/03/11 09:52:11;;;;;;;;;;;15.80;99.90;;;;;;5054496;28;19912;-71
2023/03/11 09:54:39;;;;;;;;;;;15.80;99.90;;;;;;5053783;28;19908;-71
2023/03/11 09:57:05;;;;;;;;;;;15.70;99.90;;;;;;5055915;28;20405;-72
2023/03/11 09:59:31;;;;;;;;;;;15.60;99.90;;;;;;5056130;28;20066;-71
2023/03/11 10:01:57;;;;;;;;;;;15.60;99.90;;;;;;5055583;28;19964;-71
2023/03/11 10:04:32;;;;;;;;;;;15.70;99.90;;;;;;5055801;28;19908;-71
2023/03/11 10:06:59;;;;;;;;;;;15.60;99.90;;;;;;5055750;28;19967;-71
2023/03/11 10:09:36;;;;;;;;;;;15.60;99.90;;;;;;5054274;28;19921;-72
2023/03/11 10:12:14;;;;;;;;;;;15.60;99.90;;;;;;5051552;28;19909;-71
2023/03/11 10:14:42;;;;;;;;;;;15.70;99.90;;;;;;5055871;28;20015;-70
2023/03/11 10:17:17;;;;;;;;;;;15.70;99.90;;;;;;5048546;28;20461;-71
2023/03/11 10:19:51;;;;;;;;;;;15.90;99.90;;;;;;5052847;28;19948;-71
2023/03/11 10:22:32;;;;;;;;;;;16.00;99.90;;;;;;5055510;28;19928;-70
2023/03/11 10:25:01;;;;;;;;;;;15.90;99.90;;;;;;5055745;28;19909;-72
2023/03/11 10:27:39;;;;;;;;;;;15.90;99.90;;;;;;5053497;28;20308;-71
2023/03/11 10:30:19;;;;;;;;;;;15.80;99.90;;;;;;5054582;28;20508;-71
2023/03/11 10:32:51;;;;;;;;;;;15.90;99.90;;;;;;5055680;28;20398;-71
2023/03/11 10:35:27;;;;;;;;;;;15.80;99.90;;;;;;5055246;28;19915;-71
2023/03/11 10:37:55;;;;;;;;;;;15.80;99.90;;;;;;5051305;28;20050;-71
2023/03/11 10:40:24;;;;;;;;;;;15.80;99.90;;;;;;5054705;28;19928;-71
2023/03/11 10:42:52;;;;;;;;;;;15.90;99.90;;;;;;5055764;28;19912;-71
2023/03/11 10:45:19;;;;;;;;;;;16.00;99.90;;;;;;5054871;28;19980;-71
2023/03/11 10:47:45;;;;;;;;;;;16.10;99.90;;;;;;5054156;28;19917;-72
2023/03/11 10:50:17;;;;;;;;;;;16.50;99.90;;;;;;5054318;28;19908;-71
2023/03/11 10:53:01;;;;;;;;;;;16.70;99.90;;;;;;5048336;28;20402;-71
2023/03/11 10:55:27;;;;;;;;;;;16.90;99.90;;;;;;5053757;28;19917;-71
2023/03/11 10:58:02;;;;;;;;;;;17.00;99.90;;;;;;5055350;28;19996;-70
2023/03/11 11:00:29;;;;;;;;;;;17.00;99.90;;;;;;5052847;28;19989;-71
2023/03/11 11:02:58;;;;;;;;;;;17.20;99.90;;;;;;5049141;28;19963;-71
2023/03/11 11:05:29;;;;;;;;;;;17.20;99.90;;;;;;5054651;28;19912;-71
2023/03/11 11:08:14;;;;;;;;;;;17.20;99.90;;;;;;5057482;28;20178;-71
2023/03/11 11:11:09;;;;;;;;;;;17.20;99.90;;;;;;5065648;28;19916;-72
2023/03/11 11:13:35;;;;;;;;;;;17.20;99.90;;;;;;5047238;28;19920;-71
2023/03/11 11:16:02;;;;;;;;;;;17.20;99.90;;;;;;5066096;28;19956;-72
2023/03/11 11:18:33;;;;;;;;;;;17.20;99.90;;;;;;5063667;28;19920;-72
2023/03/11 11:20:59;;;;;;;;;;;17.20;99.90;;;;;;5062557;28;19921;-71
2023/03/11 11:23:26;;;;;;;;;;;17.10;99.90;;;;;;5064050;28;20341;-71
2023/03/11 11:25:57;;;;;;;;;;;17.00;99.90;;;;;;5057590;28;19923;-71
2023/03/11 11:28:22;;;;;;;;;;;17.10;99.90;;;;;;5064685;28;20003;-72
2023/03/11 11:30:55;;;;;;;;;;;17.20;99.90;;;;;;5056211;28;19951;-71
2023/03/11 11:33:23;;;;;;;;;;;17.00;99.90;;;;;;5066104;28;19908;-71
2023/03/11 11:35:50;;;;;;;;;;;16.80;99.90;;;;;;5068810;28;19916;-71
2023/03/11 11:38:16;;;;;;;;;;;16.70;99.90;;;;;;5067352;28;19908;-71
2023/03/11 11:40:42;;;;;;;;;;;16.60;99.90;;;;;;5062061;28;19920;-71
2023/03/11 11:43:16;;;;;;;;;;;16.50;99.90;;;;;;5082452;28;19919;-71
2023/03/11 11:45:44;;;;;;;;;;;16.40;99.90;;;;;;5065515;28;19943;-71
2023/03/11 11:48:10;;;;;;;;;;;16.30;99.90;;;;;;5065699;28;19918;-72
2023/03/11 11:50:40;;;;;;;;;;;16.10;99.90;;;;;;5055703;28;19941;-71
2023/03/11 11:53:23;;;;;;;;;;;16.10;99.90;;;;;;5067870;28;19995;-71
2023/03/11 11:55:52;;;;;;;;;;;16.10;99.90;;;;;;5067323;28;19909;-70
2023/03/11 11:58:19;;;;;;;;;;;16.10;99.90;;;;;;5066481;28;19908;-70
2023/03/11 12:00:49;;;;;;;;;;;16.10;99.90;;;;;;5060826;28;19920;-70
2023/03/11 12:03:20;;;;;;;;;;;16.00;99.90;;;;;;5067388;28;19908;-70
2023/03/11 12:05:52;;;;;;;;;;;16.00;99.90;;;;;;5064550;28;19974;-70
2023/03/11 12:08:21;;;;;;;;;;;15.90;99.90;;;;;;5066648;28;19909;-69
2023/03/11 12:10:56;;;;;;;;;;;15.80;99.90;;;;;;5066463;28;19913;-71
2023/03/11 12:13:40;;;;;;;;;;;15.80;99.90;;;;;;5065770;28;20318;-70
2023/03/11 12:16:25;;;;;;;;;;;15.80;99.90;;;;;;5074920;28;19909;-70
2023/03/11 12:18:53;;;;;;;;;;;15.60;99.90;;;;;;5066828;28;19908;-70
2023/03/11 12:21:44;;;;;;;;;;;15.40;99.90;;;;;;5049982;28;19989;-71
2023/03/11 12:24:10;;;;;;;;;;;15.30;99.90;;;;;;5077125;28;19916;-70
2023/03/11 12:26:38;;;;;;;;;;;15.30;99.90;;;;;;5058528;28;19939;-70
2023/03/11 12:29:18;;;;;;;;;;;15.20;99.90;;;;;;5066403;28;20221;-70
2023/03/11 12:31:52;;;;;;;;;;;15.30;99.90;;;;;;5066257;28;20082;-70
2023/03/11 12:34:19;;;;;;;;;;;15.20;99.90;;;;;;5066266;28;20465;-70
2023/03/11 12:36:45;;;;;;;;;;;15.20;99.90;;;;;;5066103;28;19916;-70
2023/03/11 12:39:28;;;;;;;;;;;15.20;99.90;;;;;;5064538;28;19916;-70
2023/03/11 12:42:20;;;;;;;;;;;15.20;99.90;;;;;;5053190;28;19913;-70
2023/03/11 12:44:47;;;;;;;;;;;15.20;99.90;;;;;;5058489;28;19996;-70
2023/03/11 12:47:12;;;;;;;;;;;15.20;99.90;;;;;;5061651;28;19999;-70
2023/03/11 12:49:40;;;;;;;;;;;15.10;99.90;;;;;;5065638;28;19944;-70
2023/03/11 12:52:08;;;;;;;;;;;15.00;99.90;;;;;;5061584;28;19925;-69
2023/03/11 12:54:35;;;;;;;;;;;15.00;99.90;;;;;;5050330;28;19917;-69
2023/03/11 12:57:19;;;;;;;;;;;14.90;99.90;;;;;;5048613;28;19960;-70
2023/03/11 13:00:09;;;;;;;;;;;14.90;99.90;;;;;;5066419;28;19990;-68
2023/03/11 13:02:46;;;;;;;;;;;14.90;99.90;;;;;;5062589;28;19912;-69
2023/03/11 13:05:21;;;;;;;;;;;14.80;99.90;;;;;;5066963;28;19909;-70
2023/03/11 13:07:54;;;;;;;;;;;14.80;99.90;;;;;;5066618;28;19927;-70
2023/03/11 13:10:20;;;;;;;;;;;14.80;99.90;;;;;;5066123;28;19975;-70
2023/03/11 13:12:45;;;;;;;;;;;14.80;99.90;;;;;;5064842;28;20379;-69
2023/03/11 13:15:18;;;;;;;;;;;14.90;99.90;;;;;;5067654;28;19948;-69
2023/03/11 13:17:59;;;;;;;;;;;15.00;99.90;;;;;;5070341;28;19927;-69
2023/03/11 13:20:40;;;;;;;;;;;15.00;99.90;;;;;;5052847;28;19912;-69
2023/03/11 13:23:12;;;;;;;;;;;15.10;99.90;;;;;;5054337;28;19970;-69
2023/03/11 13:25:38;;;;;;;;;;;15.00;99.90;;;;;;5051490;28;20338;-69
2023/03/11 13:28:19;;;;;;;;;;;15.00;99.90;;;;;;5063353;28;19958;-70
2023/03/11 13:30:52;;;;;;;;;;;15.00;99.90;;;;;;5050703;28;19913;-69
2023/03/11 13:33:21;;;;;;;;;;;15.00;99.90;;;;;;5066661;28;20044;-69
2023/03/11 13:36:08;;;;;;;;;;;15.00;99.90;;;;;;5066627;28;19920;-69
2023/03/11 13:38:59;;;;;;;;;;;15.00;99.90;;;;;;5057456;28;19917;-69
2023/03/11 13:41:35;;;;;;;;;;;15.10;99.90;;;;;;5053020;28;20171;-69
2023/03/11 13:44:09;;;;;;;;;;;15.10;99.90;;;;;;5067663;28;19966;-69
2023/03/11 13:46:39;;;;;;;;;;;15.20;99.90;;;;;;5057729;28;20048;-69
2023/03/11 13:49:10;;;;;;;;;;;15.10;99.90;;;;;;5057146;28;19912;-69
2023/03/11 13:51:39;;;;;;;;;;;15.00;99.90;;;;;;5046390;28;19927;-67
2023/03/11 13:54:13;;;;;;;;;;;15.10;99.90;;;;;;5062412;28;19909;-68
2023/03/11 13:56:43;;;;;;;;;;;15.10;99.90;;;;;;5048602;28;20276;-69
2023/03/11 13:59:28;;;;;;;;;;;15.00;99.90;;;;;;5056555;28;19920;-69
2023/03/11 14:01:56;;;;;;;;;;;15.10;99.90;;;;;;5049340;28;19967;-70
2023/03/11 14:04:28;;;;;;;;;;;15.00;99.90;;;;;;5056893;28;19915;-70
2023/03/11 14:06:54;;;;;;;;;;;15.10;99.90;;;;;;5051884;28;20374;-70
2023/03/11 14:09:21;;;;;;;;;;;15.20;99.90;;;;;;5049885;28;20015;-69
2023/03/11 14:11:48;;;;;;;;;;;15.20;99.90;;;;;;5050382;28;20410;-70
2023/03/11 14:14:47;;;;;;;;;;;15.30;99.90;;;;;;5055237;28;20290;-70
2023/03/11 14:17:15;;;;;;;;;;;15.40;99.90;;;;;;5044107;28;19955;-70
2023/03/11 14:19:41;;;;;;;;;;;15.60;99.90;;;;;;5056029;28;20359;-70
2023/03/11 14:22:07;;;;;;;;;;;15.60;99.90;;;;;;5054488;28;19919;-68